Time;durP1;ratioP1;P1;durP2;ratioP2;P2;SDS_P1;SDS_P2;PMS_P1;PMS_P2;Temp;Humidity;BMP_temperature;BMP_pressure;BME280_temperature;BME280_humidity;BME280_pressure;Samples;Min_cycle;Max_cycle;Signal;HPM_P1;HPM_P2
2023/08/29 00:04:31;;;;;;;1.35;0.50;;;11.70;99.90;;;;;;21009390;28;20044;-61
2023/08/29 00:14:34;;;;;;;0.98;0.40;;;11.60;99.90;;;;;;21004478;28;20085;-61
2023/08/29 00:24:35;;;;;;;0.40;0.40;;;11.60;99.90;;;;;;21003245;28;20032;-60
2023/08/29 00:34:37;;;;;;;0.93;0.35;;;11.50;99.90;;;;;;20980445;28;20036;-61
2023/08/29 00:44:39;;;;;;;0.70;0.30;;;11.50;99.90;;;;;;20988387;28;20077;-61
2023/08/29 00:54:41;;;;;;;0.98;0.47;;;11.60;99.90;;;;;;21001925;28;20032;-60
2023/08/29 01:04:42;;;;;;;1.23;0.40;;;11.30;99.90;;;;;;21051808;28;20043;-60
2023/08/29 01:15:05;;;;;;;1.40;0.40;;;11.10;99.90;;;;;;21050051;28;20036;-60
2023/08/29 01:25:52;;;;;;;1.08;0.40;;;11.00;99.90;;;;;;21030354;28;20086;-49
2023/08/29 01:35:53;;;;;;;3.03;0.50;;;11.00;99.90;;;;;;21013699;28;20028;-56
2023/08/29 01:45:57;;;;;;;0.90;0.50;;;11.00;99.90;;;;;;21048405;28;20093;-61
2023/08/29 01:56:00;;;;;;;3.67;0.50;;;10.70;99.90;;;;;;21017801;28;20036;-60
2023/08/29 02:06:02;;;;;;;2.00;0.52;;;10.70;99.90;;;;;;21023918;28;20051;-61
2023/08/29 02:16:04;;;;;;;0.82;0.40;;;10.60;99.90;;;;;;21034066;28;20032;-60
2023/08/29 02:26:06;;;;;;;1.08;0.30;;;10.60;99.90;;;;;;20980418;28;20429;-60
2023/08/29 02:36:08;;;;;;;0.75;0.22;;;10.60;99.90;;;;;;20992015;28;20020;-49
2023/08/29 02:46:10;;;;;;;0.82;0.13;;;10.70;99.90;;;;;;21003213;28;20028;-59
2023/08/29 02:56:11;;;;;;;2.05;0.30;;;10.50;99.90;;;;;;21005491;28;20025;-60
2023/08/29 03:06:13;;;;;;;1.05;0.20;;;10.10;99.90;;;;;;21023230;28;20044;-59
2023/08/29 03:16:17;;;;;;;1.85;0.20;;;10.00;99.90;;;;;;20987154;28;20028;-61
2023/08/29 03:26:20;;;;;;;0.30;0.20;;;10.00;99.90;;;;;;21039078;28;20040;-60
2023/08/29 03:36:22;;;;;;;1.63;0.20;;;9.90;99.90;;;;;;20979485;28;20065;-61
2023/08/29 03:46:24;;;;;;;0.32;0.10;;;10.10;99.90;;;;;;20999535;28;20590;-60
2023/08/29 03:56:25;;;;;;;0.45;0.20;;;10.10;99.90;;;;;;20997840;28;20540;-59
2023/08/29 04:06:28;;;;;;;1.10;0.10;;;10.00;99.90;;;;;;21029500;28;20093;-52
2023/08/29 04:16:30;;;;;;;0.65;0.30;;;9.90;99.90;;;;;;21005604;28;20048;-50
2023/08/29 04:26:33;;;;;;;0.10;0.10;;;9.90;99.90;;;;;;20998610;28;20040;-50
2023/08/29 04:36:35;;;;;;;0.00;0.00;;;9.90;99.90;;;;;;21017609;28;20093;-60
2023/08/29 04:46:36;;;;;;;0.50;0.00;;;9.80;99.90;;;;;;21006314;28;20093;-49
2023/08/29 04:56:38;;;;;;;0.10;0.00;;;9.80;99.90;;;;;;21008097;28;20500;-60
2023/08/29 05:06:40;;;;;;;0.00;0.00;;;9.90;99.90;;;;;;20992876;28;20044;-60
2023/08/29 05:16:41;;;;;;;0.17;0.00;;;9.70;99.90;;;;;;21009417;28;20082;-60
2023/08/29 05:26:44;;;;;;;0.47;0.00;;;9.60;99.90;;;;;;21001646;28;20040;-60
2023/08/29 05:36:49;;;;;;;0.35;0.00;;;9.50;99.90;;;;;;21008288;28;20032;-57
2023/08/29 05:46:50;;;;;;;2.50;0.10;;;9.20;99.90;;;;;;21011897;28;20039;-50
2023/08/29 05:56:52;;;;;;;0.10;0.05;;;9.30;99.90;;;;;;21035214;28;20081;-52
2023/08/29 06:06:54;;;;;;;0.57;0.17;;;9.40;99.90;;;;;;21019626;28;20048;-50
2023/08/29 06:16:55;;;;;;;0.82;0.30;;;9.60;99.90;;;;;;21027904;28;20036;-50
2023/08/29 06:26:57;;;;;;;1.70;0.25;;;9.60;99.90;;;;;;20988198;28;20539;-61
2023/08/29 06:36:59;;;;;;;0.60;0.20;;;9.60;99.90;;;;;;20992833;28;20052;-52
2023/08/29 06:47:01;;;;;;;1.10;0.20;;;9.80;99.90;;;;;;21013230;28;20036;-51
2023/08/29 06:57:02;;;;;;;0.90;0.13;;;10.30;99.90;;;;;;21006872;28;20029;-51
2023/08/29 07:07:04;;;;;;;0.10;0.10;;;10.60;99.90;;;;;;21003429;28;20098;-55
2023/08/29 07:17:06;;;;;;;0.43;0.15;;;10.90;99.90;;;;;;20992459;28;20059;-54
2023/08/29 07:27:08;;;;;;;0.08;0.00;;;11.00;99.90;;;;;;20985801;28;20450;-55
2023/08/29 07:37:10;;;;;;;0.30;0.00;;;11.20;99.90;;;;;;21014965;28;20040;-61
2023/08/29 07:47:11;;;;;;;1.95;0.10;;;11.00;99.90;;;;;;21023986;28;20040;-55
2023/08/29 07:57:13;;;;;;;0.40;0.10;;;11.20;99.90;;;;;;21009325;28;20032;-62
2023/08/29 08:07:15;;;;;;;0.90;0.00;;;11.40;99.90;;;;;;21023628;28;20041;-54
2023/08/29 08:17:16;;;;;;;1.30;0.10;;;11.90;99.90;;;;;;21010434;28;20052;-58
2023/08/29 08:27:19;;;;;;;0.10;0.00;;;12.00;99.90;;;;;;21015601;28;20416;-63
2023/08/29 08:37:20;;;;;;;0.30;0.00;;;11.30;99.90;;;;;;20996598;28;20028;-53
2023/08/29 08:47:22;;;;;;;0.00;0.00;;;10.40;99.90;;;;;;20988969;28;20547;-50
2023/08/29 08:57:25;;;;;;;0.13;0.00;;;10.20;99.90;;;;;;20993135;28;20039;-60
2023/08/29 09:07:26;;;;;;;0.55;0.00;;;10.90;99.90;;;;;;21021112;28;20040;-53
2023/08/29 09:17:31;;;;;;;0.20;0.00;;;11.30;99.90;;;;;;21013177;28;20406;-63
2023/08/29 09:27:47;;;;;;;0.85;0.00;;;11.60;99.90;;;;;;21019700;28;20088;-55
2023/08/29 09:37:57;;;;;;;0.20;0.00;;;12.00;99.90;;;;;;21006301;28;20044;-62
2023/08/29 09:48:02;;;;;;;0.38;0.00;;;12.80;99.90;;;;;;21003526;28;20036;-57
2023/08/29 09:58:06;;;;;;;0.00;0.00;;;13.80;99.90;;;;;;21017165;28;20040;-62
2023/08/29 10:08:17;;;;;;;0.25;0.00;;;14.10;99.90;;;;;;21014101;28;20040;-63
2023/08/29 10:18:19;;;;;;;0.00;0.00;;;14.00;99.90;;;;;;20999707;28;20040;-63
2023/08/29 10:28:22;;;;;;;0.73;0.00;;;14.20;99.90;;;;;;21008980;28;20027;-54
2023/08/29 10:38:26;;;;;;;0.10;0.00;;;13.90;99.90;;;;;;21008949;28;20431;-63
2023/08/29 10:48:43;;;;;;;0.00;0.00;;;14.10;99.90;;;;;;21011132;28;20473;-64
2023/08/29 10:58:47;;;;;;;1.27;0.10;;;13.60;99.90;;;;;;21002798;28;20377;-63
2023/08/29 11:08:50;;;;;;;0.00;0.00;;;13.70;99.90;;;;;;21021620;28;20023;-64
2023/08/29 11:19:04;;;;;;;0.30;0.00;;;13.60;99.90;;;;;;21022194;28;20472;-63
2023/08/29 11:29:06;;;;;;;0.00;0.00;;;13.40;99.90;;;;;;21021600;28;20032;-64
2023/08/29 11:39:08;;;;;;;0.00;0.00;;;13.20;99.90;;;;;;21006827;28;20035;-64
2023/08/29 11:49:16;;;;;;;0.00;0.00;;;13.00;99.90;;;;;;21021057;28;20045;-62
2023/08/29 11:59:19;;;;;;;0.00;0.00;;;12.70;99.90;;;;;;21025422;28;20137;-63
2023/08/29 12:09:22;;;;;;;0.00;0.00;;;12.60;99.90;;;;;;21031485;28;20542;-63
2023/08/29 12:19:24;;;;;;;0.10;0.00;;;12.90;99.90;;;;;;21003308;28;20047;-55
2023/08/29 12:29:26;;;;;;;0.30;0.00;;;13.30;99.90;;;;;;21008735;28;20040;-55
2023/08/29 12:39:28;;;;;;;0.43;0.10;;;13.20;99.90;;;;;;21006777;28;20102;-64
2023/08/29 12:49:30;;;;;;;1.45;0.08;;;13.00;99.90;;;;;;21009507;28;20036;-64
2023/08/29 12:59:32;;;;;;;0.30;0.00;;;12.90;99.90;;;;;;20953399;28;1340842;-64
2023/08/29 13:09:33;;;;;;;0.25;0.00;;;12.90;99.90;;;;;;21005238;28;20032;-63
2023/08/29 13:19:35;;;;;;;0.10;0.00;;;12.80;99.90;;;;;;21000646;28;20032;-63
2023/08/29 13:29:37;;;;;;;0.00;0.00;;;12.70;99.90;;;;;;21015464;28;20028;-63
2023/08/29 13:39:46;;;;;;;3.17;0.10;;;12.70;99.90;;;;;;21010341;28;20284;-50
2023/08/29 13:49:48;;;;;;;0.28;0.10;;;12.70;99.90;;;;;;20997043;28;20036;-62
2023/08/29 13:59:50;;;;;;;0.10;0.00;;;12.40;99.90;;;;;;21017140;28;20094;-63
2023/08/29 14:09:52;;;;;;;0.22;0.08;;;12.30;99.90;;;;;;21010590;28;20401;-63
2023/08/29 14:19:56;;;;;;;1.10;0.10;;;12.50;99.90;;;;;;20999319;28;20036;-55
2023/08/29 14:29:58;;;;;;;0.22;0.00;;;12.60;99.90;;;;;;21010862;28;20050;-63
2023/08/29 14:40:00;;;;;;;0.55;0.08;;;12.40;99.90;;;;;;21013672;28;20032;-54
2023/08/29 14:50:03;;;;;;;0.00;0.00;;;12.20;99.90;;;;;;20995937;28;20394;-53
2023/08/29 15:00:05;;;;;;;0.00;0.00;;;12.10;99.90;;;;;;21009901;28;20040;-65
2023/08/29 15:10:08;;;;;;;0.47;0.00;;;12.20;99.90;;;;;;21000671;28;20450;-50
2023/08/29 15:20:10;;;;;;;0.00;0.00;;;12.30;99.90;;;;;;20994477;28;20145;-53
2023/08/29 15:30:12;;;;;;;0.00;0.00;;;12.20;99.90;;;;;;21005295;28;20025;-63
2023/08/29 15:40:15;;;;;;;0.90;0.00;;;12.20;99.90;;;;;;20988314;28;20050;-63
2023/08/29 15:50:17;;;;;;;0.50;0.10;;;12.20;99.90;;;;;;21011295;28;20090;-64
2023/08/29 16:00:19;;;;;;;0.22;0.03;;;12.30;99.90;;;;;;21010375;28;20048;-64
2023/08/29 16:10:22;;;;;;;0.10;0.00;;;12.40;99.90;;;;;;21027048;28;20180;-56
2023/08/29 16:20:24;;;;;;;0.38;0.00;;;12.70;99.90;;;;;;21010389;28;20028;-63
2023/08/29 16:30:26;;;;;;;0.17;0.00;;;12.70;99.90;;;;;;21016825;28;20435;-63
2023/08/29 16:40:32;;;;;;;0.10;0.00;;;12.50;99.90;;;;;;21015520;28;20383;-63
2023/08/29 16:50:34;;;;;;;0.10;0.00;;;12.30;99.90;;;;;;21016857;28;20431;-64
2023/08/29 17:00:37;;;;;;;0.00;0.00;;;12.10;99.90;;;;;;21053044;28;20036;-63
2023/08/29 17:10:39;;;;;;;0.00;0.00;;;11.80;99.90;;;;;;21048417;28;20123;-63
2023/08/29 17:20:41;;;;;;;1.15;0.00;;;11.60;99.90;;;;;;20981423;28;20020;-64
2023/08/29 17:30:43;;;;;;;0.10;0.00;;;11.50;99.90;;;;;;21050631;28;20039;-63
2023/08/29 17:40:45;;;;;;;0.95;0.00;;;11.70;99.90;;;;;;21031987;28;20085;-64
2023/08/29 17:50:47;;;;;;;0.00;0.00;;;11.90;99.90;;;;;;21025014;28;20032;-64
2023/08/29 18:00:50;;;;;;;0.00;0.00;;;12.00;99.90;;;;;;21047483;28;20066;-63
2023/08/29 18:10:55;;;;;;;0.03;0.00;;;12.00;99.90;;;;;;21028325;28;20036;-63
2023/08/29 18:20:58;;;;;;;1.23;0.00;;;12.00;99.90;;;;;;20995131;28;20028;-63
2023/08/29 18:31:02;;;;;;;0.60;0.00;;;12.00;99.90;;;;;;21005110;28;20078;-62
2023/08/29 18:41:05;;;;;;;0.47;0.00;;;12.00;99.90;;;;;;21007514;28;20040;-63
2023/08/29 18:51:07;;;;;;;0.00;0.00;;;11.90;99.90;;;;;;20985754;28;20040;-62
2023/08/29 19:01:10;;;;;;;0.22;0.00;;;11.80;99.90;;;;;;21022264;28;20063;-54
2023/08/29 19:11:14;;;;;;;0.43;0.00;;;12.00;99.90;;;;;;21030366;28;20032;-62
2023/08/29 19:21:16;;;;;;;0.00;0.00;;;12.10;99.90;;;;;;21008666;28;20036;-62
2023/08/29 19:31:18;;;;;;;2.72;0.00;;;12.10;99.90;;;;;;20989954;28;20035;-51
2023/08/29 19:41:21;;;;;;;0.98;0.00;;;12.10;99.90;;;;;;21039483;28;20028;-62
2023/08/29 19:51:23;;;;;;;0.00;0.00;;;12.00;99.90;;;;;;21047578;28;20036;-62
2023/08/29 20:01:25;;;;;;;0.10;0.00;;;12.10;99.90;;;;;;21034192;28;20494;-62
2023/08/29 20:11:27;;;;;;;0.10;0.00;;;12.10;99.90;;;;;;21035449;28;20089;-62
2023/08/29 20:21:29;;;;;;;2.72;0.00;;;12.20;99.90;;;;;;21037445;28;20436;-62
2023/08/29 20:31:31;;;;;;;0.08;0.00;;;12.10;99.90;;;;;;21013410;28;20377;-62
2023/08/29 20:41:33;;;;;;;0.00;0.00;;;12.00;99.90;;;;;;21023244;28;20029;-64
2023/08/29 20:51:38;;;;;;;0.05;0.00;;;11.90;99.90;;;;;;21037807;28;20081;-62
2023/08/29 21:01:40;;;;;;;0.10;0.00;;;11.90;99.90;;;;;;21052403;28;20145;-62
2023/08/29 21:11:42;;;;;;;0.20;0.00;;;11.90;99.90;;;;;;21045413;28;20489;-62
2023/08/29 21:21:43;;;;;;;0.00;0.00;;;11.80;99.90;;;;;;21050456;28;20035;-63
2023/08/29 21:31:45;;;;;;;0.00;0.00;;;11.80;99.90;;;;;;21024612;28;20098;-62
2023/08/29 21:41:47;;;;;;;0.00;0.00;;;11.80;99.90;;;;;;21033563;28;20062;-62
2023/08/29 21:51:49;;;;;;;0.25;0.00;;;11.80;99.90;;;;;;21045456;28;20039;-63
2023/08/29 22:01:51;;;;;;;0.00;0.00;;;11.80;99.90;;;;;;20963704;28;20102;-62
2023/08/29 22:11:53;;;;;;;0.32;0.00;;;11.80;99.90;;;;;;21021071;28;20040;-63
2023/08/29 22:21:54;;;;;;;0.00;0.00;;;11.90;99.90;;;;;;21038173;28;20044;-63
2023/08/29 22:31:56;;;;;;;0.00;0.00;;;11.90;99.90;;;;;;21045725;28;20621;-63
2023/08/29 22:41:58;;;;;;;0.10;0.00;;;11.90;99.90;;;;;;21018016;28;20389;-62
2023/08/29 22:52:02;;;;;;;0.00;0.00;;;11.80;99.90;;;;;;21031502;28;20539;-63
2023/08/29 23:02:04;;;;;;;0.00;0.00;;;11.80;99.90;;;;;;21007460;28;20048;-63
2023/08/29 23:12:06;;;;;;;0.10;0.00;;;11.80;99.90;;;;;;21051092;28;20523;-62
2023/08/29 23:22:08;;;;;;;0.10;0.00;;;11.90;99.90;;;;;;21060242;28;20053;-63
2023/08/29 23:32:10;;;;;;;0.00;0.00;;;11.90;99.90;;;;;;21030686;28;20033;-63
2023/08/29 23:42:12;;;;;;;0.00;0.00;;;11.90;99.90;;;;;;21018248;28;20020;-62
2023/08/29 23:52:14;;;;;;;0.00;0.00;;;11.90;99.90;;;;;;21039383;28;20460;-64
